createdAt,value
2019-05-26T00:01:09.142Z,92.10
2019-05-26T00:03:37.628Z,92.00
2019-05-26T00:06:06.093Z,92.40
2019-05-26T00:08:34.668Z,92.30
2019-05-26T00:11:03.121Z,92.30
2019-05-26T00:13:31.569Z,92.20
2019-05-26T00:16:00.076Z,92.50
2019-05-26T00:18:28.594Z,92.30
2019-05-26T00:20:57.033Z,92.50
2019-05-26T00:23:25.521Z,92.40
2019-05-26T00:25:54.022Z,92.30
2019-05-26T00:28:22.460Z,92.60
2019-05-26T00:30:50.909Z,92.80
2019-05-26T00:33:19.397Z,92.70
2019-05-26T00:35:47.841Z,92.80
2019-05-26T00:38:16.337Z,92.80
2019-05-26T00:40:45.056Z,92.80
2019-05-26T00:43:13.500Z,92.60
2019-05-26T00:45:42.000Z,92.60
2019-05-26T00:48:10.473Z,92.60
2019-05-26T00:50:38.983Z,92.40
2019-05-26T00:53:07.507Z,92.40
2019-05-26T00:55:35.945Z,92.30
2019-05-26T00:58:04.401Z,92.30
2019-05-26T01:00:43.933Z,92.30
2019-05-26T01:03:12.449Z,92.30
2019-05-26T01:05:41.162Z,92.40
2019-05-26T01:08:09.656Z,92.30
2019-05-26T01:10:38.144Z,92.30
2019-05-26T01:13:06.713Z,92.60
2019-05-26T01:15:35.171Z,92.30
2019-05-26T01:18:04.494Z,92.60
2019-05-26T01:20:32.986Z,92.50
2019-05-26T01:23:01.438Z,92.60
2019-05-26T01:25:30.018Z,92.70
2019-05-26T01:27:58.465Z,92.80
2019-05-26T01:30:37.138Z,92.90
2019-05-26T01:33:05.906Z,93.10
2019-05-26T01:35:35.198Z,92.90
2019-05-26T01:38:03.862Z,93.00
2019-05-26T01:40:40.760Z,93.10
2019-05-26T01:43:09.321Z,93.10
2019-05-26T01:45:37.761Z,93.40
2019-05-26T01:48:06.882Z,93.00
2019-05-26T01:50:35.509Z,93.20
2019-05-26T01:53:04.404Z,93.30
2019-05-26T01:55:32.889Z,93.20
2019-05-26T01:58:01.328Z,93.30
2019-05-26T02:00:29.853Z,93.40
2019-05-26T02:02:58.361Z,93.40
2019-05-26T02:05:26.809Z,93.30
2019-05-26T02:07:55.305Z,93.50
2019-05-26T02:10:23.761Z,93.50
2019-05-26T02:12:52.211Z,93.50
2019-05-26T02:15:20.693Z,93.40
2019-05-26T02:17:49.186Z,93.40
2019-05-26T02:20:17.643Z,93.40
2019-05-26T02:22:46.093Z,93.60
2019-05-26T02:25:14.762Z,93.40
2019-05-26T02:27:43.204Z,93.70
2019-05-26T02:30:11.663Z,93.60
2019-05-26T02:32:40.172Z,93.80
2019-05-26T02:35:08.798Z,93.90
2019-05-26T02:37:37.270Z,94.10
2019-05-26T02:40:07.197Z,94.10
2019-05-26T02:42:35.944Z,94.10
2019-05-26T02:45:07.815Z,94.10
2019-05-26T02:47:36.302Z,94.40
2019-05-26T02:50:06.597Z,94.40
2019-05-26T02:52:35.041Z,94.50
2019-05-26T02:55:04.618Z,94.40
2019-05-26T02:57:33.056Z,94.40
2019-05-26T03:00:01.579Z,94.50
2019-05-26T03:02:30.132Z,94.60
2019-05-26T03:04:58.585Z,94.70
2019-05-26T03:07:27.245Z,94.70
2019-05-26T03:09:55.953Z,94.90
2019-05-26T03:12:25.001Z,95.00
2019-05-26T03:14:53.521Z,95.00
2019-05-26T03:17:21.973Z,95.20
2019-05-26T03:19:50.466Z,95.30
2019-05-26T03:22:19.803Z,95.30
2019-05-26T03:24:48.241Z,95.40
2019-05-26T03:27:16.842Z,95.40
2019-05-26T03:29:45.286Z,95.40
2019-05-26T03:32:14.095Z,95.30
2019-05-26T03:34:42.584Z,95.40
2019-05-26T03:37:11.022Z,95.40
2019-05-26T03:39:45.509Z,95.60
2019-05-26T03:42:09.734Z,95.40
2019-05-26T03:44:38.182Z,95.50
2019-05-26T03:47:07.006Z,95.60
2019-05-26T03:49:35.503Z,95.50
2019-05-26T03:52:03.943Z,95.80
2019-05-26T03:54:32.388Z,95.50
2019-05-26T03:57:00.905Z,95.60
2019-05-26T03:59:29.365Z,95.50
2019-05-26T04:01:57.984Z,95.60
2019-05-26T04:04:26.776Z,95.50
2019-05-26T04:06:55.222Z,95.80
2019-05-26T04:09:23.739Z,95.60
2019-05-26T04:11:52.227Z,95.70
2019-05-26T04:14:21.818Z,95.80
2019-05-26T04:16:50.304Z,95.60
2019-05-26T04:19:18.751Z,95.70
2019-05-26T04:21:47.193Z,96.10
2019-05-26T04:24:15.677Z,96.00
2019-05-26T04:26:44.178Z,95.80
2019-05-26T04:29:12.644Z,95.70
2019-05-26T04:31:41.123Z,95.70
2019-05-26T04:34:09.641Z,95.70
2019-05-26T04:36:38.134Z,95.70
2019-05-26T04:39:07.228Z,95.50
2019-05-26T04:41:35.714Z,95.70
2019-05-26T04:44:04.206Z,95.60
2019-05-26T04:46:32.697Z,95.60
2019-05-26T04:49:01.198Z,95.30
2019-05-26T04:51:29.628Z,95.50
2019-05-26T04:53:58.076Z,95.60
2019-05-26T04:56:26.560Z,95.70
2019-05-26T04:58:55.009Z,95.60
2019-05-26T05:01:23.523Z,95.30
2019-05-26T05:03:51.970Z,95.70
2019-05-26T05:06:20.414Z,95.40
2019-05-26T05:08:48.900Z,95.60
2019-05-26T05:11:17.336Z,95.80
2019-05-26T05:13:45.841Z,95.80
2019-05-26T05:16:14.293Z,95.70
2019-05-26T05:18:42.737Z,95.60
2019-05-26T05:21:11.255Z,95.50
2019-05-26T05:23:39.702Z,95.80
2019-05-26T05:26:08.153Z,95.40
2019-05-26T05:28:36.716Z,95.20
2019-05-26T05:31:05.164Z,95.10
2019-05-26T05:33:33.633Z,95.20
2019-05-26T05:36:02.128Z,95.00
2019-05-26T05:38:30.578Z,94.80
2019-05-26T05:41:00.398Z,94.50
2019-05-26T05:43:29.089Z,94.00
2019-05-26T05:45:57.533Z,94.00
2019-05-26T05:48:25.977Z,93.70
2019-05-26T05:50:54.481Z,93.80
2019-05-26T05:53:22.929Z,93.60
2019-05-26T05:55:51.377Z,93.60
2019-05-26T05:58:19.865Z,93.60
2019-05-26T06:00:48.310Z,93.60
2019-05-26T06:03:18.712Z,93.60
2019-05-26T06:05:47.004Z,93.70
2019-05-26T06:08:15.502Z,93.80
2019-05-26T06:10:43.949Z,93.90
2019-05-26T06:13:12.392Z,93.90
2019-05-26T06:15:40.877Z,93.80
2019-05-26T06:18:09.369Z,93.70
2019-05-26T06:20:37.815Z,93.50
2019-05-26T06:23:06.276Z,93.30
2019-05-26T06:25:34.867Z,93.10
2019-05-26T06:28:03.310Z,92.90
2019-05-26T06:30:31.748Z,92.90
2019-05-26T06:33:00.281Z,92.90
2019-05-26T06:35:32.332Z,92.60
2019-05-26T06:37:58.828Z,92.30
2019-05-26T06:40:27.405Z,92.30
2019-05-26T06:42:55.852Z,92.00
2019-05-26T06:45:24.363Z,92.00
2019-05-26T06:47:53.075Z,91.40
2019-05-26T06:50:22.083Z,91.80
2019-05-26T06:52:50.687Z,91.40
2019-05-26T06:55:19.208Z,91.00
2019-05-26T06:57:47.652Z,91.00
2019-05-26T07:00:16.145Z,90.90
2019-05-26T07:02:44.589Z,90.60
2019-05-26T07:05:13.465Z,90.20
2019-05-26T07:07:41.916Z,90.00
2019-05-26T07:10:10.430Z,90.00
2019-05-26T07:12:38.879Z,89.10
2019-05-26T07:15:08.100Z,88.40
2019-05-26T07:17:36.622Z,88.50
2019-05-26T07:20:06.405Z,87.60
2019-05-26T07:22:34.849Z,87.10
2019-05-26T07:25:04.896Z,85.60
2019-05-26T07:27:33.360Z,84.70
2019-05-26T07:30:01.855Z,84.80
2019-05-26T07:32:30.341Z,84.20
2019-05-26T07:34:58.784Z,83.10
2019-05-26T07:37:27.231Z,83.70
2019-05-26T07:39:55.717Z,82.40
2019-05-26T07:42:24.165Z,82.20
2019-05-26T07:44:52.745Z,81.70
2019-05-26T07:47:21.195Z,81.70
2019-05-26T07:49:49.638Z,82.10
2019-05-26T07:52:18.177Z,80.60
2019-05-26T07:54:46.665Z,79.80
2019-05-26T07:57:15.166Z,78.60
2019-05-26T07:59:43.780Z,78.30
2019-05-26T08:02:12.233Z,78.70
2019-05-26T08:04:40.722Z,78.00
2019-05-26T08:07:09.164Z,77.50
2019-05-26T08:09:37.651Z,77.50
2019-05-26T08:12:06.170Z,77.60
2019-05-26T08:14:34.755Z,78.20
2019-05-26T08:17:03.202Z,77.30
2019-05-26T08:19:31.678Z,76.80
2019-05-26T08:22:00.209Z,76.60
2019-05-26T08:24:28.669Z,77.00
2019-05-26T08:26:57.120Z,76.00
2019-05-26T08:29:25.571Z,76.60
2019-05-26T08:31:54.056Z,76.10
2019-05-26T08:34:22.500Z,74.80
2019-05-26T08:36:51.018Z,75.40
2019-05-26T08:39:19.588Z,74.80
2019-05-26T08:41:48.029Z,74.30
2019-05-26T08:44:16.479Z,70.90
2019-05-26T08:46:44.989Z,70.50
2019-05-26T08:49:13.437Z,71.70
2019-05-26T08:51:41.954Z,71.10
2019-05-26T08:54:10.441Z,67.40
2019-05-26T08:56:38.885Z,64.50
2019-05-26T08:59:07.365Z,62.80
2019-05-26T09:01:35.809Z,62.60
2019-05-26T09:04:04.297Z,62.20
2019-05-26T09:06:32.734Z,62.40
2019-05-26T09:09:01.173Z,63.60
2019-05-26T09:11:29.687Z,62.30
2019-05-26T09:13:58.124Z,62.90
2019-05-26T09:16:26.617Z,64.40
2019-05-26T09:18:55.065Z,64.40
2019-05-26T09:21:23.498Z,63.30
2019-05-26T09:23:51.988Z,62.60
2019-05-26T09:26:20.422Z,64.40
2019-05-26T09:28:48.919Z,64.90
2019-05-26T09:31:17.344Z,66.30
2019-05-26T09:33:45.857Z,67.80
2019-05-26T09:36:14.361Z,68.70
2019-05-26T09:38:42.805Z,69.20
2019-05-26T09:41:11.380Z,69.10
2019-05-26T09:43:39.826Z,69.60
2019-05-26T09:46:08.286Z,69.50
2019-05-26T09:48:36.804Z,71.70
2019-05-26T09:51:05.245Z,71.20
2019-05-26T09:53:33.737Z,71.20
2019-05-26T09:56:02.571Z,71.60
2019-05-26T09:58:31.076Z,71.00
2019-05-26T10:00:59.586Z,71.20
2019-05-26T10:03:28.093Z,72.50
2019-05-26T10:05:56.537Z,72.80
2019-05-26T10:08:25.015Z,73.00
2019-05-26T10:10:53.464Z,72.40
2019-05-26T10:13:31.317Z,72.10
2019-05-26T10:15:52.054Z,72.80
2019-05-26T10:18:20.491Z,72.30
2019-05-26T10:20:48.970Z,73.50
2019-05-26T10:23:17.422Z,73.10
2019-05-26T10:25:45.914Z,73.30
2019-05-26T10:28:14.348Z,70.70
2019-05-26T10:30:42.789Z,71.40
2019-05-26T10:33:11.290Z,71.70
2019-05-26T10:35:39.769Z,71.40
2019-05-26T10:38:08.297Z,71.50
2019-05-26T10:40:36.781Z,72.10
2019-05-26T10:43:05.230Z,72.40
2019-05-26T10:45:34.508Z,72.60
2019-05-26T10:48:03.165Z,72.10
2019-05-26T10:50:31.649Z,72.50
2019-05-26T10:53:00.107Z,71.70
2019-05-26T10:55:28.545Z,71.50
2019-05-26T10:57:57.033Z,71.40
2019-05-26T11:00:25.521Z,69.30
2019-05-26T11:02:53.965Z,67.20
2019-05-26T11:05:22.423Z,67.00
2019-05-26T11:07:50.908Z,65.20
2019-05-26T11:10:19.471Z,66.50
2019-05-26T11:12:47.970Z,67.80
2019-05-26T11:15:16.477Z,68.50
2019-05-26T11:17:44.967Z,65.10
2019-05-26T11:20:13.469Z,65.00
2019-05-26T11:22:42.021Z,64.10
2019-05-26T11:25:10.513Z,64.70
2019-05-26T11:27:38.988Z,65.30
2019-05-26T11:30:12.416Z,65.30
2019-05-26T11:32:40.965Z,65.70
2019-05-26T11:35:09.824Z,65.90
2019-05-26T11:37:38.332Z,67.10
2019-05-26T11:40:07.348Z,64.00
2019-05-26T11:42:35.825Z,64.50
2019-05-26T11:45:06.142Z,64.90
2019-05-26T11:47:34.658Z,64.70
2019-05-26T11:50:04.540Z,64.60
2019-05-26T11:52:32.980Z,64.80
2019-05-26T11:55:01.479Z,64.10
2019-05-26T11:57:29.925Z,67.80
2019-05-26T11:59:58.375Z,68.90
2019-05-26T12:02:26.861Z,68.80
2019-05-26T12:04:55.309Z,68.30
2019-05-26T12:07:23.759Z,67.40
2019-05-26T12:09:52.262Z,68.50
2019-05-26T12:12:20.709Z,70.50
2019-05-26T12:14:49.201Z,71.20
2019-05-26T12:17:17.647Z,70.30
2019-05-26T12:19:46.098Z,70.10
2019-05-26T12:22:14.584Z,71.10
2019-05-26T12:24:43.087Z,72.10
2019-05-26T12:27:11.605Z,72.20
2019-05-26T12:29:40.048Z,72.40
2019-05-26T12:32:08.621Z,72.20
2019-05-26T12:34:37.069Z,72.30
2019-05-26T12:37:05.530Z,71.00
2019-05-26T12:39:34.029Z,71.00
2019-05-26T12:42:02.503Z,71.70
2019-05-26T12:44:30.925Z,71.40
2019-05-26T12:46:59.425Z,71.90
2019-05-26T12:49:28.113Z,70.10
2019-05-26T12:51:56.743Z,70.20
2019-05-26T12:54:25.224Z,69.00
2019-05-26T12:56:53.677Z,68.40
2019-05-26T12:59:22.225Z,68.20
2019-05-26T13:01:50.753Z,67.50
2019-05-26T13:04:19.201Z,67.30
2019-05-26T13:06:47.642Z,66.50
2019-05-26T13:09:16.137Z,68.50
2019-05-26T13:11:44.651Z,68.30
2019-05-26T13:14:13.101Z,67.90
2019-05-26T13:16:41.601Z,67.50
2019-05-26T13:19:10.041Z,68.70
2019-05-26T13:21:38.497Z,69.70
2019-05-26T13:24:06.984Z,68.30
2019-05-26T13:26:35.434Z,68.20
2019-05-26T13:29:04.013Z,68.40
2019-05-26T13:31:32.452Z,68.10
2019-05-26T13:34:00.905Z,67.30
2019-05-26T13:36:29.460Z,67.00
2019-05-26T13:38:57.904Z,66.00
2019-05-26T13:41:26.402Z,66.80
2019-05-26T13:43:54.892Z,65.90
2019-05-26T13:46:23.333Z,66.90
2019-05-26T13:48:51.806Z,67.90
2019-05-26T13:51:20.293Z,70.10
2019-05-26T13:53:48.780Z,70.40
2019-05-26T13:56:17.339Z,71.10
2019-05-26T13:58:45.840Z,69.80
2019-05-26T14:01:14.289Z,69.60
2019-05-26T14:03:42.909Z,68.40
2019-05-26T14:06:11.361Z,67.00
2019-05-26T14:08:39.801Z,67.80
2019-05-26T14:11:08.286Z,69.30
2019-05-26T14:13:36.746Z,69.20
2019-05-26T14:16:05.231Z,69.60
2019-05-26T14:18:33.854Z,69.30
2019-05-26T14:21:02.303Z,70.70
2019-05-26T14:23:30.744Z,69.50
2019-05-26T14:25:59.237Z,64.80
2019-05-26T14:28:27.689Z,62.70
2019-05-26T14:30:56.131Z,66.90
2019-05-26T14:33:24.637Z,69.70
2019-05-26T14:35:53.077Z,71.50
2019-05-26T14:38:21.518Z,72.40
2019-05-26T14:40:50.005Z,72.90
2019-05-26T14:43:18.497Z,72.60
2019-05-26T14:45:53.259Z,73.90
2019-05-26T14:48:17.038Z,69.60
2019-05-26T14:50:45.537Z,70.70
2019-05-26T14:53:13.976Z,69.80
2019-05-26T14:55:42.425Z,68.40
2019-05-26T14:58:16.217Z,71.10
2019-05-26T15:00:41.005Z,66.50
2019-05-26T15:03:09.458Z,71.10
2019-05-26T15:05:37.987Z,71.20
2019-05-26T15:08:06.497Z,72.10
2019-05-26T15:10:34.932Z,68.90
2019-05-26T15:13:03.422Z,62.90
2019-05-26T15:15:34.911Z,62.90
2019-05-26T15:18:01.993Z,66.30
2019-05-26T15:20:30.525Z,66.50
2019-05-26T15:22:59.864Z,68.10
2019-05-26T15:25:28.353Z,66.70
2019-05-26T15:27:56.869Z,60.80
2019-05-26T15:30:25.377Z,61.60
2019-05-26T15:32:53.873Z,61.40
2019-05-26T15:35:22.321Z,58.10
2019-05-26T15:37:50.842Z,56.30
2019-05-26T15:40:19.333Z,55.80
2019-05-26T15:42:47.779Z,56.60
2019-05-26T15:45:16.217Z,57.60
2019-05-26T15:47:44.717Z,58.20
2019-05-26T15:50:13.845Z,58.70
2019-05-26T15:52:42.409Z,59.20
2019-05-26T15:55:11.272Z,59.50
2019-05-26T15:57:39.713Z,59.10
2019-05-26T16:00:08.631Z,58.80
2019-05-26T16:02:37.150Z,58.80
2019-05-26T16:05:06.147Z,57.70
2019-05-26T16:07:34.589Z,58.60
2019-05-26T16:10:04.023Z,58.30
2019-05-26T16:12:32.487Z,59.20
2019-05-26T16:15:00.925Z,58.90
2019-05-26T16:17:29.425Z,59.80
2019-05-26T16:19:57.866Z,59.90
2019-05-26T16:22:26.378Z,59.10
2019-05-26T16:24:54.818Z,60.00
2019-05-26T16:27:23.260Z,60.30
2019-05-26T16:29:51.743Z,59.80
2019-05-26T16:32:20.241Z,60.20
2019-05-26T16:34:48.757Z,59.50
2019-05-26T16:37:17.209Z,58.90
2019-05-26T16:39:45.769Z,60.70
2019-05-26T16:42:14.218Z,59.10
2019-05-26T16:44:42.701Z,59.00
2019-05-26T16:47:11.142Z,59.80
2019-05-26T16:49:39.627Z,61.60
2019-05-26T16:52:08.112Z,64.00
2019-05-26T16:54:36.625Z,65.40
2019-05-26T16:57:05.079Z,65.70
2019-05-26T16:59:33.562Z,67.10
2019-05-26T17:02:02.002Z,67.10
2019-05-26T17:04:30.444Z,66.80
2019-05-26T17:06:58.959Z,65.10
2019-05-26T17:09:27.406Z,63.80
2019-05-26T17:11:55.940Z,63.00
2019-05-26T17:14:24.697Z,63.10
2019-05-26T17:16:53.197Z,62.70
2019-05-26T17:19:21.641Z,65.60
2019-05-26T17:21:50.081Z,67.90
2019-05-26T17:24:18.573Z,69.80
2019-05-26T17:26:47.062Z,72.00
2019-05-26T17:29:15.509Z,73.80
2019-05-26T17:31:43.949Z,75.10
2019-05-26T17:34:12.437Z,75.90
2019-05-26T17:36:40.879Z,76.80
2019-05-26T17:39:09.322Z,77.30
2019-05-26T17:41:37.870Z,77.80
2019-05-26T17:44:06.546Z,78.70
2019-05-26T17:46:34.989Z,78.70
2019-05-26T17:49:03.514Z,78.80
2019-05-26T17:51:32.263Z,79.00
2019-05-26T17:54:00.842Z,79.40
2019-05-26T17:56:29.415Z,79.90
2019-05-26T17:58:57.867Z,80.30
2019-05-26T18:01:26.361Z,81.00
2019-05-26T18:03:54.815Z,81.70
2019-05-26T18:06:23.261Z,81.90
2019-05-26T18:08:51.747Z,82.10
2019-05-26T18:11:20.191Z,82.50
2019-05-26T18:13:48.629Z,82.20
2019-05-26T18:16:17.133Z,82.30
2019-05-26T18:18:45.574Z,82.80
2019-05-26T18:21:14.022Z,83.50
2019-05-26T18:23:42.501Z,84.00
2019-05-26T18:26:10.980Z,83.80
2019-05-26T18:28:39.861Z,84.20
2019-05-26T18:31:08.309Z,85.30
2019-05-26T18:33:36.788Z,85.80
2019-05-26T18:36:05.253Z,85.60
2019-05-26T18:38:33.745Z,86.20
2019-05-26T18:41:02.189Z,88.50
2019-05-26T18:43:30.754Z,90.40
2019-05-26T18:45:59.352Z,91.40
2019-05-26T18:48:27.821Z,93.20
2019-05-26T18:50:56.301Z,93.30
2019-05-26T18:53:24.749Z,94.00
2019-05-26T18:55:53.253Z,94.30
2019-05-26T18:58:21.719Z,94.40
2019-05-26T19:00:50.359Z,95.90
2019-05-26T19:03:19.073Z,95.20
2019-05-26T19:05:47.526Z,95.30
2019-05-26T19:08:15.986Z,95.50
2019-05-26T19:10:44.493Z,95.50
2019-05-26T19:13:12.941Z,95.70
2019-05-26T19:15:41.380Z,95.80
2019-05-26T19:18:19.268Z,95.70
2019-05-26T19:20:40.041Z,96.30
2019-05-26T19:23:08.545Z,96.80
2019-05-26T19:25:37.005Z,96.30
2019-05-26T19:28:05.442Z,96.50
2019-05-26T19:30:34.394Z,96.40
2019-05-26T19:33:02.958Z,97.10
2019-05-26T19:35:31.457Z,96.80
2019-05-26T19:37:59.900Z,97.20
2019-05-26T19:40:28.525Z,97.30
2019-05-26T19:42:57.028Z,97.80
2019-05-26T19:45:25.473Z,97.90
2019-05-26T19:47:53.958Z,97.90
2019-05-26T19:50:22.412Z,98.00
2019-05-26T19:52:51.053Z,98.00
2019-05-26T19:55:19.493Z,98.20
2019-05-26T19:57:48.185Z,98.00
2019-05-26T20:00:17.524Z,98.10
2019-05-26T20:02:46.037Z,98.20
2019-05-26T20:05:14.621Z,97.90
2019-05-26T20:07:43.104Z,98.00
2019-05-26T20:10:11.554Z,98.00
2019-05-26T20:12:40.056Z,98.10
2019-05-26T20:15:08.750Z,98.50
2019-05-26T20:17:37.202Z,98.10
2019-05-26T20:20:08.898Z,98.20
2019-05-26T20:22:37.345Z,98.00
2019-05-26T20:25:07.733Z,98.10
2019-05-26T20:27:36.182Z,98.30
2019-05-26T20:30:07.758Z,98.60
2019-05-26T20:32:36.709Z,98.60
2019-05-26T20:35:08.701Z,98.40
2019-05-26T20:37:37.250Z,98.50
2019-05-26T20:40:08.612Z,98.10
2019-05-26T20:42:37.133Z,98.20
2019-05-26T20:45:07.588Z,98.10
2019-05-26T20:47:36.078Z,98.30
2019-05-26T20:50:07.105Z,97.90
2019-05-26T20:52:35.631Z,98.10
2019-05-26T20:55:06.368Z,98.00
2019-05-26T20:57:34.818Z,98.30
2019-05-26T21:00:07.543Z,98.50
2019-05-26T21:02:36.062Z,98.30
2019-05-26T21:05:06.262Z,98.50
2019-05-26T21:07:34.756Z,98.60
2019-05-26T21:10:03.475Z,98.70
2019-05-26T21:12:32.125Z,98.50
2019-05-26T21:15:01.177Z,98.50
2019-05-26T21:17:30.055Z,98.40
2019-05-26T21:19:58.501Z,98.40
2019-05-26T21:22:27.006Z,98.40
2019-05-26T21:24:55.461Z,98.90
2019-05-26T21:27:23.911Z,98.60
2019-05-26T21:29:52.404Z,98.70
2019-05-26T21:32:20.882Z,98.70
2019-05-26T21:34:49.479Z,99.00
2019-05-26T21:37:17.965Z,98.90
2019-05-26T21:39:46.462Z,99.00
2019-05-26T21:42:16.050Z,98.70
2019-05-26T21:44:44.701Z,98.80
2019-05-26T21:47:13.146Z,98.90
2019-05-26T21:49:41.707Z,98.90
2019-05-26T21:52:10.155Z,98.90
2019-05-26T21:54:41.292Z,99.30
2019-05-26T21:57:10.026Z,99.20
2019-05-26T21:59:38.472Z,99.10
2019-05-26T22:02:07.016Z,99.10
2019-05-26T22:04:35.506Z,99.10
2019-05-26T22:07:04.021Z,98.80
2019-05-26T22:09:33.627Z,98.90
2019-05-26T22:12:02.120Z,99.00
2019-05-26T22:14:30.577Z,98.70
2019-05-26T22:16:59.110Z,98.80
2019-05-26T22:19:27.604Z,98.80
2019-05-26T22:21:56.065Z,98.80
2019-05-26T22:24:24.581Z,98.80
2019-05-26T22:26:53.072Z,98.90
2019-05-26T22:29:21.593Z,99.10
2019-05-26T22:31:50.112Z,99.10
2019-05-26T22:34:18.632Z,99.00
2019-05-26T22:36:47.069Z,99.00
2019-05-26T22:39:15.524Z,99.00
2019-05-26T22:41:44.014Z,99.10
2019-05-26T22:44:12.465Z,99.10
2019-05-26T22:46:40.913Z,99.00
2019-05-26T22:49:09.407Z,99.00
2019-05-26T22:51:37.849Z,98.90
2019-05-26T22:54:06.373Z,99.20
2019-05-26T22:56:34.920Z,99.10
2019-05-26T22:59:03.377Z,99.10
2019-05-26T23:01:31.865Z,99.00
2019-05-26T23:04:03.042Z,99.10
2019-05-26T23:06:30.461Z,98.80
2019-05-26T23:08:58.908Z,99.00
2019-05-26T23:11:27.360Z,99.30
2019-05-26T23:13:55.863Z,99.30
2019-05-26T23:16:43.810Z,99.50
2019-05-26T23:19:19.151Z,99.50
2019-05-26T23:21:42.400Z,99.40
2019-05-26T23:24:10.848Z,99.30
2019-05-26T23:26:39.346Z,98.60
2019-05-26T23:29:07.796Z,98.50
2019-05-26T23:31:36.321Z,99.00
2019-05-26T23:34:04.825Z,99.30
2019-05-26T23:36:33.277Z,98.90
2019-05-26T23:39:01.761Z,98.60
2019-05-26T23:41:30.398Z,98.60
2019-05-26T23:43:58.847Z,98.70
2019-05-26T23:46:27.351Z,98.20
2019-05-26T23:48:55.801Z,98.30
2019-05-26T23:51:24.289Z,98.20
2019-05-26T23:53:52.805Z,98.10
2019-05-26T23:56:21.257Z,98.30
2019-05-26T23:58:49.761Z,98.20
